メインページ
METAR-TAF:

METAR-TAF

空港 :

Guaymas, メキシコ

緯度: 27-58N, 経度: 110-56W, 海抜: 27m

現時点の気象観測

当レポートは33分前の19:40(UTC)に作成
西/南西の風 7kt
気温 25°C
湿度 57%
気圧 1014 hPa
視程: 16.1km
高度10000ftの千切れ雲あり
高度20000ftの千切れ雲あり

METAR: MMGM 111940Z 25007KT 10SM BKN100 BKN200 25/16 A2995 RMK 8/013 HZY

時間: 13:13 (20:13 UTC)

予報

当レポートは3時間32分前の16:41(UTC)に作成
予報は11日の 18時(UTC)から 12日の 18時(UTC)まで有効
南/南西の風 6kt
視程: 10km
高度10000ftの千切れ雲あり
高度20000ftの千切れ雲あり
12日の 0600時(UTC)から
南/南東の風 5kt
視程: 10km
高度2000ftの雲は散在している
高度8000ftの千切れ雲あり
12日の 12時(UTC)から 12日の 15時(UTC)まで一時的に
視程: 4.8km
高度800ftの千切れ雲あり

TAF: MMGM 111641Z 1118/1218 20006KT P6SM BKN100 BKN200 FM120600 15005KT P6SM SCT020 BKN080 TEMPO 1212/1215 3SM BR BKN008

4,000以上の空港の気象観測と天気予報(METAR報とTAF報)

利用可能な観測所は地図上に黄色い丸と赤い丸で示す。

丸の上にカーソルを重ねると観測所名を参照できる。

次にクリックすると気象観測と天気予報を参照できる。

マップの切り替え:黒色「×」印の緑ボタンをクリックして拡大、「-」印の緑ボタンをクリックして縮小、緑色の三角印をクリックして隣りの地図に切り替え


METAR-TAF: